Aviation Digital Data Service (ADDS)

Output produced by METARs form (1244 UTC 22 March 2019)
found at http://www.aviationweather.gov/metar/data/
 
METAR text: WAOO 221200Z 12005KT 9000 FEW018 29/26 Q1008 NOSIG
Conditions at: WAOO (SYAMSUDIN NOOR , ID) observed 1200 UTC 22 March 2019
Temperature: 29.0°C (84°F)
Dewpoint: 26.0°C (79°F) [RH = 84%]
Pressure (altimeter): 29.76 inches Hg (1008.0 mb)
Winds: from the ESE (120 degrees) at 6 MPH (5 knots; 2.6 m/s)
Visibility: 6 miles ( 9 km)
Ceiling: at least 12,000 feet AGL
Clouds: few clouds at 1800 feet AGL
Weather: no significant weather observed at this time

METAR text: WAOO 221130Z 21003KT 9999 FEW018 29/26 Q1008
Conditions at: WAOO (SYAMSUDIN NOOR , ID) observed 1130 UTC 22 March 2019
Temperature: 29.0°C (84°F)
Dewpoint: 26.0°C (79°F) [RH = 84%]
Pressure (altimeter): 29.76 inches Hg (1008.0 mb)
Winds: from the SSW (210 degrees) at 3 MPH (3 knots; 1.5 m/s)
Visibility: 6 or more miles (10+ km)
Ceiling: at least 12,000 feet AGL
Clouds: few clouds at 1800 feet AGL
Weather: no significant weather observed at this time

METAR text: WAOO 221000Z 23007KT 9999 FEW018 30/25 Q1006 NOSIG
Conditions at: WAOO (SYAMSUDIN NOOR , ID) observed 1000 UTC 22 March 2019
Temperature: 30.0°C (86°F)
Dewpoint: 25.0°C (77°F) [RH = 75%]
Pressure (altimeter): 29.70 inches Hg (1006.0 mb)
Winds: from the SW (230 degrees) at 8 MPH (7 knots; 3.6 m/s)
Visibility: 6 or more miles (10+ km)
Ceiling: at least 12,000 feet AGL
Clouds: few clouds at 1800 feet AGL
Weather: no significant weather observed at this time

METAR text: WAOO 220900Z 16004KT 9999 SCT018 31/24 Q1006 NOSIG
Conditions at: WAOO (SYAMSUDIN NOOR , ID) observed 0900 UTC 22 March 2019
Temperature: 31.0°C (88°F)
Dewpoint: 24.0°C (75°F) [RH = 66%]
Pressure (altimeter): 29.70 inches Hg (1006.0 mb)
Winds: from the SSE (160 degrees) at 5 MPH (4 knots; 2.1 m/s)
Visibility: 6 or more miles (10+ km)
Ceiling: at least 12,000 feet AGL
Clouds: scattered clouds at 1800 feet AGL
Weather: no significant weather observed at this time

METAR text: WAOO 220800Z 24006KT 9999 SCT016 31/25 Q1007 TEMPO TL0830 6000 RA
Conditions at: WAOO (SYAMSUDIN NOOR , ID) observed 0800 UTC 22 March 2019
Temperature: 31.0°C (88°F)
Dewpoint: 25.0°C (77°F) [RH = 71%]
Pressure (altimeter): 29.73 inches Hg (1007.0 mb)
Winds: from the WSW (240 degrees) at 7 MPH (6 knots; 3.1 m/s)
Visibility: 6 or more miles (10+ km)
Ceiling: at least 12,000 feet AGL
Clouds: scattered clouds at 1600 feet AGL
Weather: no significant weather observed at this time

METAR text: WAOO 220700Z 23004KT 9999 SCT016 32/25 Q1007 TEMPO TL0830 6000 RA
Conditions at: WAOO (SYAMSUDIN NOOR , ID) observed 0700 UTC 22 March 2019
Temperature: 32.0°C (90°F)
Dewpoint: 25.0°C (77°F) [RH = 67%]
Pressure (altimeter): 29.73 inches Hg (1007.0 mb)
Winds: from the SW (230 degrees) at 5 MPH (4 knots; 2.1 m/s)
Visibility: 6 or more miles (10+ km)
Ceiling: at least 12,000 feet AGL
Clouds: scattered clouds at 1600 feet AGL
Weather: no significant weather observed at this time

METAR text: WAOO 220600Z 21007KT 9999 SCT016 33/25 Q1007
Conditions at: WAOO (SYAMSUDIN NOOR , ID) observed 0600 UTC 22 March 2019
Temperature: 33.0°C (91°F)
Dewpoint: 25.0°C (77°F) [RH = 63%]
Pressure (altimeter): 29.73 inches Hg (1007.0 mb)
Winds: from the SSW (210 degrees) at 8 MPH (7 knots; 3.6 m/s)
Visibility: 6 or more miles (10+ km)
Ceiling: at least 12,000 feet AGL
Clouds: scattered clouds at 1600 feet AGL
Weather: no significant weather observed at this time

METAR text: WAOO 220500Z 26005KT 220V320 9999 SCT017 34/24 Q1008
Conditions at: WAOO (SYAMSUDIN NOOR , ID) observed 0500 UTC 22 March 2019
Temperature: 34.0°C (93°F)
Dewpoint: 24.0°C (75°F) [RH = 56%]
Pressure (altimeter): 29.76 inches Hg (1008.0 mb)
Winds: from the W (260 degrees) at 6 MPH (5 knots; 2.6 m/s)
Visibility: 6 or more miles (10+ km)
Ceiling: at least 12,000 feet AGL
Clouds: scattered clouds at 1700 feet AGL
Weather: no significant weather observed at this time

METAR text: WAOO 220400Z 30006KT 9999 SCT018 33/25 Q1009
Conditions at: WAOO (SYAMSUDIN NOOR , ID) observed 0400 UTC 22 March 2019
Temperature: 33.0°C (91°F)
Dewpoint: 25.0°C (77°F) [RH = 63%]
Pressure (altimeter): 29.79 inches Hg (1009.0 mb)
Winds: from the WNW (300 degrees) at 7 MPH (6 knots; 3.1 m/s)
Visibility: 6 or more miles (10+ km)
Ceiling: at least 12,000 feet AGL
Clouds: scattered clouds at 1800 feet AGL
Weather: no significant weather observed at this time

METAR text: WAOO 220330Z 31006KT 9999 SCT018 32/25 Q1010
Conditions at: WAOO (SYAMSUDIN NOOR , ID) observed 0330 UTC 22 March 2019
Temperature: 32.0°C (90°F)
Dewpoint: 25.0°C (77°F) [RH = 67%]
Pressure (altimeter): 29.82 inches Hg (1010.0 mb)
Winds: from the NW (310 degrees) at 7 MPH (6 knots; 3.1 m/s)
Visibility: 6 or more miles (10+ km)
Ceiling: at least 12,000 feet AGL
Clouds: scattered clouds at 1800 feet AGL
Weather: no significant weather observed at this time

METAR text: WAOO 220300Z 30006KT 9999 SCT020 31/25 Q1010
Conditions at: WAOO (SYAMSUDIN NOOR , ID) observed 0300 UTC 22 March 2019
Temperature: 31.0°C (88°F)
Dewpoint: 25.0°C (77°F) [RH = 71%]
Pressure (altimeter): 29.82 inches Hg (1010.0 mb)
Winds: from the WNW (300 degrees) at 7 MPH (6 knots; 3.1 m/s)
Visibility: 6 or more miles (10+ km)
Ceiling: at least 12,000 feet AGL
Clouds: scattered clouds at 2000 feet AGL
Weather: no significant weather observed at this time

METAR text: WAOO 220230Z 27003KT 9999 SCT020 31/26 Q1011
Conditions at: WAOO (SYAMSUDIN NOOR , ID) observed 0230 UTC 22 March 2019
Temperature: 31.0°C (88°F)
Dewpoint: 26.0°C (79°F) [RH = 75%]
Pressure (altimeter): 29.85 inches Hg (1011.0 mb)
Winds: from the W (270 degrees) at 3 MPH (3 knots; 1.5 m/s)
Visibility: 6 or more miles (10+ km)
Ceiling: at least 12,000 feet AGL
Clouds: scattered clouds at 2000 feet AGL
Weather: no significant weather observed at this time

METAR text: WAOO 220000Z 06006KT 8000 FEW018 27/25 Q1010
Conditions at: WAOO (SYAMSUDIN NOOR , ID) observed 0000 UTC 22 March 2019
Temperature: 27.0°C (81°F)
Dewpoint: 25.0°C (77°F) [RH = 89%]
Pressure (altimeter): 29.82 inches Hg (1010.0 mb)
Winds: from the ENE (60 degrees) at 7 MPH (6 knots; 3.1 m/s)
Visibility: 5 miles ( 8 km)
Ceiling: at least 12,000 feet AGL
Clouds: few clouds at 1800 feet AGL
Weather: no significant weather observed at this time

METAR text: WAOO 212300Z AUTO 08003KT 060V130 6000 ////// 37/36 Q1010
Conditions at: WAOO (SYAMSUDIN NOOR , ID) observed 2300 UTC 21 March 2019
Temperature: 37.0°C (99°F)
Dewpoint: 36.0°C (97°F) [RH = 95%]
Pressure (altimeter): 29.82 inches Hg (1010.0 mb)
Winds: from the E (80 degrees) at 3 MPH (3 knots; 1.5 m/s)
Visibility: 4 miles ( 6 km)
Ceiling: unknown
Clouds: missing
Weather: no significant weather observed at this time

METAR text: WAOO 212200Z AUTO VRB02KT 8000 ////// 32/32 Q1009
Conditions at: WAOO (SYAMSUDIN NOOR , ID) observed 2200 UTC 21 March 2019
Temperature: 32.0°C (90°F)
Dewpoint: 32.0°C (90°F) [RH = 100%]
Pressure (altimeter): 29.79 inches Hg (1009.0 mb)
Winds: variable direction winds at 2 MPH (2 knots; 1.0 m/s)
Visibility: 5 miles ( 8 km)
Ceiling: unknown
Clouds: missing
Weather: no significant weather observed at this time

METAR text: WAOO 212100Z AUTO 09002KT 9000 ////// 32/32 Q1009
Conditions at: WAOO (SYAMSUDIN NOOR , ID) observed 2100 UTC 21 March 2019
Temperature: 32.0°C (90°F)
Dewpoint: 32.0°C (90°F) [RH = 100%]
Pressure (altimeter): 29.79 inches Hg (1009.0 mb)
Winds: from the E (90 degrees) at 2 MPH (2 knots; 1.0 m/s)
Visibility: 6 miles ( 9 km)
Ceiling: unknown
Clouds: missing
Weather: no significant weather observed at this time

METAR text: WAOO 212000Z AUTO 11002KT 9999 ////// ///// Q1009
Conditions at: WAOO (SYAMSUDIN NOOR , ID) observed 2000 UTC 21 March 2019
Temperature: missing
Dewpoint: missing
Pressure (altimeter): 29.79 inches Hg (1009.0 mb)
Winds: from the ESE (110 degrees) at 2 MPH (2 knots; 1.0 m/s)
Visibility: 6 or more miles (10+ km)
Ceiling: unknown
Clouds: missing
Weather: no significant weather observed at this time

METAR text: WAOO 211900Z AUTO 07002KT 9000 ////// 32/31 Q1009
Conditions at: WAOO (SYAMSUDIN NOOR , ID) observed 1900 UTC 21 March 2019
Temperature: 32.0°C (90°F)
Dewpoint: 31.0°C (88°F) [RH = 94%]
Pressure (altimeter): 29.79 inches Hg (1009.0 mb)
Winds: from the ENE (70 degrees) at 2 MPH (2 knots; 1.0 m/s)
Visibility: 6 miles ( 9 km)
Ceiling: unknown
Clouds: missing
Weather: no significant weather observed at this time

METAR text: WAOO 211500Z AUTO 16003KT 9999 ////// 33/32 Q1010
Conditions at: WAOO (SYAMSUDIN NOOR , ID) observed 1500 UTC 21 March 2019
Temperature: 33.0°C (91°F)
Dewpoint: 32.0°C (90°F) [RH = 95%]
Pressure (altimeter): 29.82 inches Hg (1010.0 mb)
Winds: from the SSE (160 degrees) at 3 MPH (3 knots; 1.5 m/s)
Visibility: 6 or more miles (10+ km)
Ceiling: unknown
Clouds: missing
Weather: no significant weather observed at this time

METAR text: WAOO 211300Z 18002KT 9999 FEW018 28/25 Q1009
Conditions at: WAOO (SYAMSUDIN NOOR , ID) observed 1300 UTC 21 March 2019
Temperature: 28.0°C (82°F)
Dewpoint: 25.0°C (77°F) [RH = 84%]
Pressure (altimeter): 29.79 inches Hg (1009.0 mb)
Winds: from the S (180 degrees) at 2 MPH (2 knots; 1.0 m/s)
Visibility: 6 or more miles (10+ km)
Ceiling: at least 12,000 feet AGL
Clouds: few clouds at 1800 feet AGL
Weather: no significant weather observed at this time

METAR text: WAOO 211200Z 19002KT 9999 FEW018 28/24 Q1008
Conditions at: WAOO (SYAMSUDIN NOOR , ID) observed 1200 UTC 21 March 2019
Temperature: 28.0°C (82°F)
Dewpoint: 24.0°C (75°F) [RH = 79%]
Pressure (altimeter): 29.76 inches Hg (1008.0 mb)
Winds: from the S (190 degrees) at 2 MPH (2 knots; 1.0 m/s)
Visibility: 6 or more miles (10+ km)
Ceiling: at least 12,000 feet AGL
Clouds: few clouds at 1800 feet AGL
Weather: no significant weather observed at this time

METAR text: WAOO 211100Z 22005KT CAVOK 29/23 Q1007
Conditions at: WAOO (SYAMSUDIN NOOR , ID) observed 1100 UTC 21 March 2019
Temperature: 29.0°C (84°F)
Dewpoint: 23.0°C (73°F) [RH = 70%]
Pressure (altimeter): 29.73 inches Hg (1007.0 mb)
Winds: from the SW (220 degrees) at 6 MPH (5 knots; 2.6 m/s)
Visibility: 6 or more miles (10+ km)
Ceiling: ceiling and visibility are OK
Clouds: unknown
Weather: no significant weather observed at this time

METAR text: WAOO 210900Z 23008KT 9999 FEW020 32/25 Q1006
Conditions at: WAOO (SYAMSUDIN NOOR , ID) observed 0900 UTC 21 March 2019
Temperature: 32.0°C (90°F)
Dewpoint: 25.0°C (77°F) [RH = 67%]
Pressure (altimeter): 29.70 inches Hg (1006.0 mb)
Winds: from the SW (230 degrees) at 9 MPH (8 knots; 4.1 m/s)
Visibility: 6 or more miles (10+ km)
Ceiling: at least 12,000 feet AGL
Clouds: few clouds at 2000 feet AGL
Weather: no significant weather observed at this time

METAR text: WAOO 210800Z 23009KT 9999 SCT020 33/24 Q1006
Conditions at: WAOO (SYAMSUDIN NOOR , ID) observed 0800 UTC 21 March 2019
Temperature: 33.0°C (91°F)
Dewpoint: 24.0°C (75°F) [RH = 59%]
Pressure (altimeter): 29.70 inches Hg (1006.0 mb)
Winds: from the SW (230 degrees) at 10 MPH (9 knots; 4.6 m/s)
Visibility: 6 or more miles (10+ km)
Ceiling: at least 12,000 feet AGL
Clouds: scattered clouds at 2000 feet AGL
Weather: no significant weather observed at this time

METAR text: WAOO 210700Z 24008KT 190V270 9999 SCT020 33/25 Q1007
Conditions at: WAOO (SYAMSUDIN NOOR , ID) observed 0700 UTC 21 March 2019
Temperature: 33.0°C (91°F)
Dewpoint: 25.0°C (77°F) [RH = 63%]
Pressure (altimeter): 29.73 inches Hg (1007.0 mb)
Winds: from the WSW (240 degrees) at 9 MPH (8 knots; 4.1 m/s)
Visibility: 6 or more miles (10+ km)
Ceiling: at least 12,000 feet AGL
Clouds: scattered clouds at 2000 feet AGL
Weather: no significant weather observed at this time

METAR text: WAOO 210600Z 21007KT 170V250 9999 SCT020 32/24 Q1008
Conditions at: WAOO (SYAMSUDIN NOOR , ID) observed 0600 UTC 21 March 2019
Temperature: 32.0°C (90°F)
Dewpoint: 24.0°C (75°F) [RH = 63%]
Pressure (altimeter): 29.76 inches Hg (1008.0 mb)
Winds: from the SSW (210 degrees) at 8 MPH (7 knots; 3.6 m/s)
Visibility: 6 or more miles (10+ km)
Ceiling: at least 12,000 feet AGL
Clouds: scattered clouds at 2000 feet AGL
Weather: no significant weather observed at this time

METAR text: WAOO 210500Z 20007KT 9999 SCT020 33/24 Q1009
Conditions at: WAOO (SYAMSUDIN NOOR , ID) observed 0500 UTC 21 March 2019
Temperature: 33.0°C (91°F)
Dewpoint: 24.0°C (75°F) [RH = 59%]
Pressure (altimeter): 29.79 inches Hg (1009.0 mb)
Winds: from the SSW (200 degrees) at 8 MPH (7 knots; 3.6 m/s)
Visibility: 6 or more miles (10+ km)
Ceiling: at least 12,000 feet AGL
Clouds: scattered clouds at 2000 feet AGL
Weather: no significant weather observed at this time

METAR text: WAOO 210330Z 28007KT 9999 SCT020 33/25 Q1009
Conditions at: WAOO (SYAMSUDIN NOOR , ID) observed 0330 UTC 21 March 2019
Temperature: 33.0°C (91°F)
Dewpoint: 25.0°C (77°F) [RH = 63%]
Pressure (altimeter): 29.79 inches Hg (1009.0 mb)
Winds: from the W (280 degrees) at 8 MPH (7 knots; 3.6 m/s)
Visibility: 6 or more miles (10+ km)
Ceiling: at least 12,000 feet AGL
Clouds: scattered clouds at 2000 feet AGL
Weather: no significant weather observed at this time

METAR text: WAOO 210100Z 36004KT 8000 FEW020 29/26 Q1011 NOSIG
Conditions at: WAOO (SYAMSUDIN NOOR , ID) observed 0100 UTC 21 March 2019
Temperature: 29.0°C (84°F)
Dewpoint: 26.0°C (79°F) [RH = 84%]
Pressure (altimeter): 29.85 inches Hg (1011.0 mb)
Winds: from the N (360 degrees) at 5 MPH (4 knots; 2.1 m/s)
Visibility: 5 miles ( 8 km)
Ceiling: at least 12,000 feet AGL
Clouds: few clouds at 2000 feet AGL
Weather: no significant weather observed at this time

Forecast for: WAOO (SYAMSUDIN NOOR , ID)
Text: TAF WAOO 221100Z 2212/2312 18006KT 9999 SCT018
Forecast period: 1200 to 1500 UTC 22 March 2019
Forecast type: FROM: standard forecast or significant change
Winds: from the S (180 degrees) at 7 MPH (6 knots; 3.1 m/s)
Visibility: 6 or more miles 10+ km)
Ceiling: at least 12,000 feet AGL
Clouds: scattered clouds at 1800 feet AGL
Weather: no significant weather forecast for this period
Text: BECMG 2215/2217 04005KT
Forecast period: 1500 UTC 22 March 2019 to 1200 UTC 23 March 2019
Forecast type: BECOMING: Conditions expected to become as follows by 1700 UTC 22 March 2019
Winds: from the NE (40 degrees) at 6 MPH (5 knots; 2.6 m/s)
Visibility: 6 or more miles 10+ km)
Ceiling: at least 12,000 feet AGL
Clouds: scattered clouds at 1800 feet AGL
Weather: no significant weather forecast for this period